createdAt,value
2024-03-02T00:00:32.829Z,234.6
2024-03-02T00:01:32.687Z,256.2
2024-03-02T00:02:32.643Z,239.8
2024-03-02T00:03:32.719Z,239
2024-03-02T00:04:32.618Z,231.5
2024-03-02T00:05:32.668Z,234.6
2024-03-02T00:06:32.671Z,255.9
2024-03-02T00:07:32.647Z,230.6
2024-03-02T00:08:32.693Z,253.8
2024-03-02T00:09:32.683Z,245
2024-03-02T00:10:32.794Z,224.4
2024-03-02T00:11:32.712Z,231.8
2024-03-02T00:12:32.661Z,236.1
2024-03-02T00:13:32.657Z,236.1
2024-03-02T00:14:32.673Z,227
2024-03-02T00:15:32.691Z,262.3
2024-03-02T00:16:32.710Z,227.8
2024-03-02T00:17:32.666Z,233.6
2024-03-02T00:18:32.889Z,241.6
2024-03-02T00:19:32.644Z,236.7
2024-03-02T00:20:32.659Z,247.7
2024-03-02T00:21:32.672Z,232.5
2024-03-02T00:22:32.659Z,227.6
2024-03-02T00:23:32.810Z,267.7
2024-03-02T00:24:32.675Z,249.9
2024-03-02T00:25:32.655Z,228.1
2024-03-02T00:26:32.642Z,236.3
2024-03-02T00:27:32.652Z,246
2024-03-02T00:28:32.660Z,256.7
2024-03-02T00:29:32.649Z,259.7
2024-03-02T00:30:32.682Z,238.8
2024-03-02T00:31:32.625Z,225.4
2024-03-02T00:32:32.660Z,236.5
2024-03-02T00:33:32.692Z,240.7
2024-03-02T00:34:32.669Z,195.9
2024-03-02T00:35:32.650Z,236.9
2024-03-02T00:36:32.702Z,243.6
2024-03-02T00:37:32.671Z,252.5
2024-03-02T00:38:32.666Z,232.5
2024-03-02T00:39:32.667Z,255.6
2024-03-02T00:40:32.649Z,238.8
2024-03-02T00:41:32.639Z,245.2
2024-03-02T00:42:32.664Z,245
2024-03-02T00:43:32.646Z,231.8
2024-03-02T00:44:32.656Z,254.3
2024-03-02T00:45:32.681Z,255.6
2024-03-02T00:46:32.615Z,240.3
2024-03-02T00:47:32.685Z,232.2
2024-03-02T00:48:32.740Z,244.3
2024-03-02T00:49:32.633Z,249.1
2024-03-02T00:50:32.661Z,244.3
2024-03-02T00:51:32.675Z,232.7
2024-03-02T00:52:32.645Z,221.1
2024-03-02T00:53:32.628Z,238.2
2024-03-02T00:54:32.676Z,246
2024-03-02T00:55:32.656Z,244.8
2024-03-02T00:56:32.653Z,235.5
2024-03-02T00:57:32.674Z,239
2024-03-02T00:58:32.659Z,247.4
2024-03-02T00:59:32.653Z,231.3
2024-03-02T01:00:32.689Z,244.5
2024-03-02T01:01:32.700Z,265.7
2024-03-02T01:02:32.641Z,262.8
2024-03-02T01:03:32.693Z,245.5
2024-03-02T01:04:32.650Z,237.9
2024-03-02T01:05:32.619Z,249.6
2024-03-02T01:06:32.657Z,239.4
2024-03-02T01:07:32.644Z,258.6
2024-03-02T01:08:32.657Z,235.7
2024-03-02T01:09:32.692Z,234.6
2024-03-02T01:10:32.652Z,250.4
2024-03-02T01:11:32.735Z,240.5
2024-03-02T01:12:32.692Z,224.2
2024-03-02T01:13:32.652Z,248.9
2024-03-02T01:14:32.661Z,246.4
2024-03-02T01:15:32.718Z,245.7
2024-03-02T01:16:32.662Z,227.8
2024-03-02T01:17:32.652Z,242.7
2024-03-02T01:18:32.704Z,246.4
2024-03-02T01:19:32.683Z,237.1
2024-03-02T01:20:32.656Z,249.1
2024-03-02T01:21:32.657Z,241.4
2024-03-02T01:22:32.679Z,238.8
2024-03-02T01:23:32.654Z,249.6
2024-03-02T01:24:32.640Z,231.3
2024-03-02T01:25:32.657Z,235.5
2024-03-02T01:26:32.655Z,229.3
2024-03-02T01:27:32.665Z,246.9
2024-03-02T01:28:32.660Z,220.5
2024-03-02T01:29:32.648Z,235.2
2024-03-02T01:30:32.684Z,218.3
2024-03-02T01:31:32.654Z,235.2
2024-03-02T01:32:32.659Z,227.6
2024-03-02T01:33:32.629Z,229.9
2024-03-02T01:34:32.636Z,232.7
2024-03-02T01:35:32.653Z,241.4
2024-03-02T01:36:32.632Z,233.3
2024-03-02T01:37:32.637Z,233.1
2024-03-02T01:38:32.707Z,237.1
2024-03-02T01:39:32.663Z,229.3
2024-03-02T01:40:32.629Z,220
2024-03-02T01:41:32.653Z,227.5
2024-03-02T01:42:32.669Z,235.9
2024-03-02T01:43:32.649Z,222.7
2024-03-02T01:44:32.673Z,233.3
2024-03-02T01:45:32.656Z,220.8
2024-03-02T01:46:32.630Z,220.6
2024-03-02T01:47:32.649Z,231.3
2024-03-02T01:48:32.665Z,215.3
2024-03-02T01:49:32.655Z,236.3
2024-03-02T01:50:32.660Z,231.1
2024-03-02T01:51:32.680Z,229.6
2024-03-02T01:52:32.659Z,235.2
2024-03-02T01:53:32.661Z,218.1
2024-03-02T01:54:32.731Z,211.7
2024-03-02T01:55:32.630Z,232
2024-03-02T01:56:32.684Z,238.8
2024-03-02T01:57:32.708Z,226.4
2024-03-02T01:58:32.631Z,237.3
2024-03-02T01:59:32.596Z,214
2024-03-02T02:00:32.668Z,244.8
2024-03-02T02:01:32.673Z,226.4
2024-03-02T02:02:32.643Z,236.1
2024-03-02T02:03:32.683Z,232.4
2024-03-02T02:04:32.671Z,235
2024-03-02T02:05:32.668Z,235.7
2024-03-02T02:06:32.701Z,238.6
2024-03-02T02:07:32.648Z,235
2024-03-02T02:08:32.658Z,235.3
2024-03-02T02:09:32.686Z,240.7
2024-03-02T02:10:32.662Z,244.5
2024-03-02T02:11:32.681Z,248.6
2024-03-02T02:12:32.632Z,232.9
2024-03-02T02:13:32.673Z,257.3
2024-03-02T02:14:32.595Z,250.4
2024-03-02T02:15:32.691Z,252.2
2024-03-02T02:16:32.662Z,255.1
2024-03-02T02:17:32.662Z,255.9
2024-03-02T02:18:32.680Z,266.2
2024-03-02T02:19:32.659Z,236.9
2024-03-02T02:20:32.658Z,254.8
2024-03-02T02:21:32.659Z,258.9
2024-03-02T02:22:32.661Z,252.2
2024-03-02T02:23:32.646Z,200
2024-03-02T02:24:32.674Z,206.7
2024-03-02T02:25:32.654Z,208.3
2024-03-02T02:26:32.650Z,236.9
2024-03-02T02:27:32.713Z,233.3
2024-03-02T02:28:32.644Z,240.7
2024-03-02T02:29:32.657Z,252.7
2024-03-02T02:30:32.725Z,235.7
2024-03-02T02:31:32.659Z,234.8
2024-03-02T02:32:32.683Z,234.2
2024-03-02T02:33:32.740Z,245
2024-03-02T02:34:32.621Z,238.6
2024-03-02T02:35:32.647Z,223.8
2024-03-02T02:36:32.674Z,235.5
2024-03-02T02:37:32.665Z,237.1
2024-03-02T02:38:32.642Z,231.1
2024-03-02T02:39:32.711Z,233.6
2024-03-02T02:40:32.634Z,236.7
2024-03-02T02:41:32.657Z,242.3
2024-03-02T02:42:32.659Z,230.4
2024-03-02T02:43:32.664Z,240.3
2024-03-02T02:44:32.655Z,237.7
2024-03-02T02:45:32.666Z,236.7
2024-03-02T02:46:32.655Z,231.5
2024-03-02T02:47:32.696Z,231.5
2024-03-02T02:48:32.672Z,233.6
2024-03-02T02:49:32.654Z,245
2024-03-02T02:50:32.667Z,238.8
2024-03-02T02:51:32.582Z,231.5
2024-03-02T02:52:32.601Z,230.4
2024-03-02T02:53:32.642Z,231.5
2024-03-02T02:54:32.638Z,226.1
2024-03-02T02:55:32.665Z,232.2
2024-03-02T02:56:32.659Z,236.3
2024-03-02T02:57:32.688Z,223.6
2024-03-02T02:58:32.627Z,225.4
2024-03-02T02:59:32.660Z,227.2
2024-03-02T03:00:32.725Z,232
2024-03-02T03:01:32.720Z,235.9
2024-03-02T03:02:32.656Z,225.7
2024-03-02T03:03:32.669Z,226.6
2024-03-02T03:04:32.626Z,246.2
2024-03-02T03:05:32.668Z,233.3
2024-03-02T03:06:32.682Z,230.3
2024-03-02T03:07:32.656Z,221.9
2024-03-02T03:08:32.672Z,234.8
2024-03-02T03:09:32.717Z,232.2
2024-03-02T03:10:32.655Z,246.7
2024-03-02T03:11:32.697Z,230.3
2024-03-02T03:12:32.679Z,239.6
2024-03-02T03:13:32.667Z,221.1
2024-03-02T03:14:32.634Z,220
2024-03-02T03:15:32.649Z,229.1
2024-03-02T03:16:32.654Z,235.5
2024-03-02T03:17:32.817Z,217.5
2024-03-02T03:18:32.693Z,239
2024-03-02T03:19:32.636Z,231.8
2024-03-02T03:20:32.654Z,218.8
2024-03-02T03:21:32.728Z,220.8
2024-03-02T03:22:32.653Z,226.6
2024-03-02T03:23:32.635Z,223.9
2024-03-02T03:24:32.658Z,214.6
2024-03-02T03:25:32.656Z,228.4
2024-03-02T03:26:32.653Z,225.8
2024-03-02T03:27:32.643Z,245.7
2024-03-02T03:28:32.640Z,229.8
2024-03-02T03:29:32.660Z,231.1
2024-03-02T03:30:32.709Z,238.4
2024-03-02T03:31:32.664Z,221.1
2024-03-02T03:32:32.640Z,233.1
2024-03-02T03:33:32.678Z,228.6
2024-03-02T03:34:32.674Z,219.3
2024-03-02T03:35:32.641Z,234.8
2024-03-02T03:36:32.665Z,222.9
2024-03-02T03:37:32.658Z,247.7
2024-03-02T03:38:32.643Z,232.9
2024-03-02T03:39:32.667Z,239.2
2024-03-02T03:40:32.611Z,227.6
2024-03-02T03:41:32.658Z,233.3
2024-03-02T03:42:32.729Z,223.2
2024-03-02T03:43:32.648Z,228.4
2024-03-02T03:44:32.620Z,242.7
2024-03-02T03:45:32.769Z,227.6
2024-03-02T03:46:32.659Z,233.8
2024-03-02T03:47:32.633Z,236.5
2024-03-02T03:48:32.697Z,231.5
2024-03-02T03:49:32.638Z,237.7
2024-03-02T03:50:32.638Z,246.4
2024-03-02T03:51:32.659Z,252.2
2024-03-02T03:52:32.616Z,232.2
2024-03-02T03:53:32.666Z,230.9
2024-03-02T03:54:32.702Z,228.1
2024-03-02T03:55:32.636Z,243.4
2024-03-02T03:56:32.632Z,223.6
2024-03-02T03:57:32.657Z,233.6
2024-03-02T03:58:32.652Z,250.4
2024-03-02T03:59:32.672Z,217.7
2024-03-02T04:00:32.674Z,211.3
2024-03-02T04:01:32.690Z,207.2
2024-03-02T04:02:32.662Z,223.2
2024-03-02T04:03:32.708Z,205.6
2024-03-02T04:04:32.729Z,228.1
2024-03-02T04:05:32.664Z,233.4
2024-03-02T04:06:32.701Z,259.7
2024-03-02T04:07:32.657Z,240.1
2024-03-02T04:08:32.658Z,236.9
2024-03-02T04:09:32.707Z,242.3
2024-03-02T04:10:32.659Z,223.5
2024-03-02T04:11:32.667Z,214.4
2024-03-02T04:12:32.714Z,231.8
2024-03-02T04:13:32.640Z,225.7
2024-03-02T04:14:32.647Z,200.3
2024-03-02T04:15:32.655Z,172.5
2024-03-02T04:16:32.624Z,185.4
2024-03-02T04:17:32.660Z,195.6
2024-03-02T04:18:32.704Z,218.4
2024-03-02T04:19:32.673Z,183.7
2024-03-02T04:20:32.656Z,266.2
2024-03-02T04:21:32.698Z,215.9
2024-03-02T04:22:32.679Z,191.8
2024-03-02T04:23:32.624Z,211.7
2024-03-02T04:24:32.686Z,235.9
2024-03-02T04:25:32.661Z,219.8
2024-03-02T04:26:32.620Z,219.1
2024-03-02T04:27:32.664Z,229.8
2024-03-02T04:28:32.664Z,239.6
2024-03-02T04:29:32.659Z,210.1
2024-03-02T04:30:32.653Z,226.4
2024-03-02T04:31:32.697Z,229.4
2024-03-02T04:32:32.742Z,219
2024-03-02T04:33:32.703Z,218.8
2024-03-02T04:34:32.632Z,246.4
2024-03-02T04:35:32.655Z,235.7
2024-03-02T04:36:32.773Z,240.3
2024-03-02T04:37:32.674Z,246.2
2024-03-02T04:38:32.638Z,235.3
2024-03-02T04:39:32.656Z,236.9
2024-03-02T04:40:32.638Z,256.7
2024-03-02T04:41:32.654Z,236.5
2024-03-02T04:42:32.708Z,233.6
2024-03-02T04:43:32.668Z,223.5
2024-03-02T04:44:32.633Z,227.3
2024-03-02T04:45:32.726Z,236.5
2024-03-02T04:46:32.666Z,234
2024-03-02T04:47:32.646Z,240.3
2024-03-02T04:48:32.682Z,235.3
2024-03-02T04:49:32.773Z,236.3
2024-03-02T04:50:32.652Z,248.4
2024-03-02T04:51:32.716Z,238.4
2024-03-02T04:52:32.671Z,236.9
2024-03-02T04:53:32.647Z,240.5
2024-03-02T04:54:32.697Z,238.8
2024-03-02T04:55:32.602Z,217.7
2024-03-02T04:56:32.644Z,242
2024-03-02T04:57:32.676Z,272.2
2024-03-02T04:58:32.663Z,238.6
2024-03-02T04:59:32.642Z,241.8
2024-03-02T05:00:32.672Z,245.2
2024-03-02T05:01:32.630Z,241.1
2024-03-02T05:02:32.635Z,244.3
2024-03-02T05:03:32.686Z,245
2024-03-02T05:04:32.665Z,228
2024-03-02T05:05:32.678Z,228
2024-03-02T05:06:32.652Z,235.9
2024-03-02T05:07:32.625Z,228.8
2024-03-02T05:08:32.638Z,268.8
2024-03-02T05:09:32.641Z,253.5
2024-03-02T05:10:32.647Z,261.4
2024-03-02T05:11:32.682Z,255.1
2024-03-02T05:12:32.676Z,243.4
2024-03-02T05:13:32.653Z,234.2
2024-03-02T05:14:32.631Z,228
2024-03-02T05:15:32.624Z,210.9
2024-03-02T05:16:32.602Z,177.1
2024-03-02T05:17:32.709Z,200.3
2024-03-02T05:18:32.658Z,97.6
2024-03-02T05:19:32.629Z,146.9
2024-03-02T05:20:32.633Z,145.5
2024-03-02T05:21:32.690Z,186.5
2024-03-02T05:22:32.653Z,124.9
2024-03-02T05:23:32.646Z,127.5
2024-03-02T05:24:32.641Z,128.8
2024-03-02T05:25:32.646Z,105.9
2024-03-02T05:26:32.633Z,164.6
2024-03-02T05:27:32.678Z,224.8
2024-03-02T05:28:32.665Z,195.6
2024-03-02T05:29:32.632Z,235.5
2024-03-02T05:30:32.664Z,235
2024-03-02T05:31:32.634Z,243.8
2024-03-02T05:32:32.626Z,251.7
2024-03-02T05:33:32.735Z,248.1
2024-03-02T05:34:32.622Z,254.6
2024-03-02T05:35:32.631Z,250.2
2024-03-02T05:36:32.646Z,252.7
2024-03-02T05:37:32.640Z,246.7
2024-03-02T05:38:32.657Z,237.9
2024-03-02T05:39:32.720Z,248.6
2024-03-02T05:40:32.657Z,264.2
2024-03-02T05:41:32.653Z,258.6
2024-03-02T05:42:32.667Z,232.9
2024-03-02T05:43:32.676Z,154.3
2024-03-02T05:44:32.642Z,183.7
2024-03-02T05:45:32.675Z,211.7
2024-03-02T05:46:32.656Z,215.3
2024-03-02T05:47:32.677Z,235.7
2024-03-02T05:48:32.679Z,214.6
2024-03-02T05:49:32.663Z,212.8
2024-03-02T05:50:32.652Z,102.4
2024-03-02T05:51:32.656Z,107.2
2024-03-02T05:52:32.616Z,100.4
2024-03-02T05:53:32.665Z,105.6
2024-03-02T05:54:32.623Z,86.8
2024-03-02T05:55:32.651Z,79.5
2024-03-02T05:56:32.654Z,60.7
2024-03-02T05:57:32.699Z,58.8
2024-03-02T05:58:32.670Z,50.3
2024-03-02T05:59:32.666Z,46
2024-03-02T06:00:32.777Z,26.3
2024-03-02T06:01:32.709Z,72.2
2024-03-02T06:02:32.663Z,47.5
2024-03-02T06:03:32.716Z,29.4
2024-03-02T06:04:32.656Z,60.1
2024-03-02T06:05:32.624Z,101
2024-03-02T06:06:32.701Z,92.2
2024-03-02T06:07:32.659Z,119.2
2024-03-02T06:08:32.657Z,105.3
2024-03-02T06:09:32.665Z,139.9
2024-03-02T06:10:32.654Z,146.1
2024-03-02T06:11:32.688Z,86.5
2024-03-02T06:12:32.696Z,59.8
2024-03-02T06:13:32.665Z,61.4
2024-03-02T06:14:32.623Z,99.9
2024-03-02T06:15:32.652Z,78.1
2024-03-02T06:16:32.642Z,99
2024-03-02T06:17:32.703Z,108.7
2024-03-02T06:18:32.686Z,99.6
2024-03-02T06:19:32.578Z,100.2
2024-03-02T06:20:36.461Z,104
2024-03-02T06:21:32.677Z,90.2
2024-03-02T06:22:32.660Z,147.3
2024-03-02T06:23:32.616Z,146.9
2024-03-02T06:24:32.718Z,136.7
2024-03-02T06:25:32.668Z,202
2024-03-02T06:26:32.639Z,167.5
2024-03-02T06:27:32.642Z,139.3
2024-03-02T06:28:32.657Z,103.7
2024-03-02T06:29:32.671Z,90
2024-03-02T06:30:32.681Z,104.8
2024-03-02T06:31:32.648Z,85.1
2024-03-02T06:32:32.622Z,95.9
2024-03-02T06:33:32.668Z,69.1
2024-03-02T06:34:32.626Z,107.2
2024-03-02T06:35:32.650Z,122.8
2024-03-02T06:36:32.670Z,151.8
2024-03-02T06:37:32.663Z,144.2
2024-03-02T06:38:32.618Z,143.1
2024-03-02T06:39:32.675Z,126.3
2024-03-02T06:40:32.672Z,157.4
2024-03-02T06:41:32.653Z,131.3
2024-03-02T06:42:32.683Z,101
2024-03-02T06:43:32.653Z,130.8
2024-03-02T06:44:32.643Z,124
2024-03-02T06:45:32.636Z,105.1
2024-03-02T06:46:32.624Z,114.9
2024-03-02T06:48:32.748Z,141.8
2024-03-02T06:49:32.641Z,118.8
2024-03-02T06:50:32.641Z,129
2024-03-02T06:51:32.673Z,175.1
2024-03-02T06:52:32.661Z,126.6
2024-03-02T06:53:32.687Z,161.2
2024-03-02T06:54:32.617Z,123.6
2024-03-02T06:55:32.661Z,117.6
2024-03-02T06:56:32.663Z,104.3
2024-03-02T06:57:32.710Z,132.1
2024-03-02T06:58:32.637Z,160.9
2024-03-02T06:59:32.660Z,192.1
2024-03-02T07:00:32.674Z,119
2024-03-02T07:01:32.681Z,172.8
2024-03-02T07:02:32.642Z,159.1
2024-03-02T07:03:32.723Z,170.6
2024-03-02T07:04:32.659Z,196.1
2024-03-02T07:05:32.658Z,122.2
2024-03-02T07:06:32.650Z,174
2024-03-02T07:07:32.659Z,143.6
2024-03-02T07:08:32.646Z,159.6
2024-03-02T07:09:32.685Z,217.9
2024-03-02T07:10:32.640Z,173.7
2024-03-02T07:11:32.636Z,173.7
2024-03-02T07:12:32.664Z,178.8
2024-03-02T07:13:32.688Z,199.5
2024-03-02T07:14:32.634Z,206.1
2024-03-02T07:15:32.672Z,201.8
2024-03-02T07:16:32.638Z,175.1
2024-03-02T07:17:32.678Z,191.8
2024-03-02T07:18:32.805Z,215.9
2024-03-02T07:19:32.686Z,178.8
2024-03-02T07:20:32.666Z,186.5
2024-03-02T07:21:32.695Z,212
2024-03-02T07:22:32.666Z,239
2024-03-02T07:23:32.654Z,215.5
2024-03-02T07:24:32.656Z,232.9
2024-03-02T07:27:32.659Z,215.7
2024-03-02T07:28:32.614Z,225.8
2024-03-02T07:29:32.662Z,253.3
2024-03-02T07:30:34.241Z,154.3
2024-03-02T07:31:32.657Z,274
2024-03-02T07:32:32.688Z,261.1
2024-03-02T07:33:32.715Z,271.1
2024-03-02T07:34:32.683Z,256.5
2024-03-02T07:35:32.663Z,220.6
2024-03-02T07:36:32.626Z,90.5
2024-03-02T07:37:32.628Z,131.6
2024-03-02T07:38:32.658Z,72.7
2024-03-02T07:39:32.699Z,7.6
2024-03-02T07:40:32.661Z,322.5
2024-03-02T07:41:32.643Z,304.4
2024-03-02T07:42:32.684Z,284
2024-03-02T07:43:32.678Z,348.4
2024-03-02T07:44:32.656Z,0
2024-03-02T07:45:32.682Z,215.3
2024-03-02T07:46:32.645Z,227
2024-03-02T07:47:32.655Z,135.4
2024-03-02T07:48:32.676Z,356.5
2024-03-02T07:49:32.661Z,344.8
2024-03-02T07:50:32.637Z,355.7
2024-03-02T07:51:32.682Z,337.9
2024-03-02T07:52:32.652Z,339.1
2024-03-02T07:53:32.660Z,1.4
2024-03-02T07:54:32.696Z,333.2
2024-03-02T07:55:32.654Z,349.5
2024-03-02T07:56:32.656Z,329.2
2024-03-02T07:57:32.700Z,330.1
2024-03-02T07:58:32.671Z,15.9
2024-03-02T07:59:32.657Z,9.9
2024-03-02T08:00:32.669Z,4
2024-03-02T08:01:32.696Z,9.3
2024-03-02T08:02:32.654Z,9.9
2024-03-02T08:03:32.669Z,5.1
2024-03-02T08:04:32.654Z,11.8
2024-03-02T08:05:32.676Z,15.3
2024-03-02T08:06:32.662Z,16.6
2024-03-02T08:07:32.675Z,18.7
2024-03-02T08:08:32.682Z,21.3
2024-03-02T08:09:32.703Z,19.2
2024-03-02T08:10:32.618Z,21.3
2024-03-02T08:11:32.671Z,20.3
2024-03-02T08:12:32.664Z,13.2
2024-03-02T08:13:32.650Z,360
2024-03-02T08:14:32.656Z,9.3
2024-03-02T08:15:32.732Z,350
2024-03-02T08:16:32.663Z,359.1
2024-03-02T08:17:34.294Z,353.1
2024-03-02T08:18:32.648Z,331.6
2024-03-02T08:19:32.656Z,335.2
2024-03-02T08:20:32.666Z,351.1
2024-03-02T08:21:32.742Z,311.5
2024-03-02T08:22:32.627Z,347
2024-03-02T08:23:32.634Z,2.2
2024-03-02T08:24:32.665Z,31.7
2024-03-02T08:25:32.688Z,13.2
2024-03-02T08:26:32.656Z,21
2024-03-02T08:27:32.701Z,25.4
2024-03-02T08:28:32.609Z,16.4
2024-03-02T08:29:32.648Z,359.7
2024-03-02T08:30:32.619Z,16.1
2024-03-02T08:31:32.678Z,39.3
2024-03-02T08:32:32.651Z,18
2024-03-02T08:33:33.964Z,13.4
2024-03-02T08:34:32.634Z,34.6
2024-03-02T08:35:32.617Z,34.4
2024-03-02T08:36:32.698Z,71.9
2024-03-02T08:37:32.654Z,352.5
2024-03-02T08:38:32.647Z,47.3
2024-03-02T08:39:32.738Z,72.2
2024-03-02T08:40:32.639Z,58.8
2024-03-02T08:41:32.647Z,67.4
2024-03-02T08:42:32.687Z,4.8
2024-03-02T08:43:32.641Z,77
2024-03-02T08:44:32.654Z,82.8
2024-03-02T08:45:32.845Z,109.5
2024-03-02T08:46:32.662Z,90.2
2024-03-02T08:47:32.598Z,123.4
2024-03-02T08:48:32.666Z,87.4
2024-03-02T08:49:32.665Z,122
2024-03-02T08:50:32.601Z,90.8
2024-03-02T08:51:32.679Z,80
2024-03-02T08:52:32.621Z,15.6
2024-03-02T08:53:32.629Z,270
2024-03-02T08:54:32.637Z,94.5
2024-03-02T08:55:32.659Z,113.5
2024-03-02T08:56:32.677Z,76.7
2024-03-02T08:57:32.737Z,91.7
2024-03-02T08:58:32.668Z,53.6
2024-03-02T08:59:32.640Z,111.5
2024-03-02T09:00:32.771Z,114.7
2024-03-02T09:01:32.762Z,114.2
2024-03-02T09:02:32.666Z,120.9
2024-03-02T09:03:32.662Z,137.8
2024-03-02T09:05:32.670Z,101.5
2024-03-02T09:06:32.674Z,97.4
2024-03-02T09:07:32.639Z,112.5
2024-03-02T09:08:32.638Z,101.8
2024-03-02T09:09:32.652Z,142.4
2024-03-02T09:10:32.668Z,113.7
2024-03-02T09:11:32.683Z,111.3
2024-03-02T09:12:32.697Z,99.3
2024-03-02T09:13:32.636Z,136.6
2024-03-02T09:14:32.649Z,180
2024-03-02T09:15:35.860Z,93.1
2024-03-02T09:16:32.664Z,75.4
2024-03-02T09:17:32.638Z,82.5
2024-03-02T09:18:32.711Z,106.4
2024-03-02T09:19:32.666Z,86.2
2024-03-02T09:20:32.639Z,49.9
2024-03-02T09:21:32.696Z,113.2
2024-03-02T09:22:32.661Z,127.9
2024-03-02T09:23:32.657Z,192.1
2024-03-02T09:24:32.643Z,274
2024-03-02T09:25:32.646Z,209.4
2024-03-02T09:26:32.646Z,220.3
2024-03-02T09:27:32.682Z,166.2
2024-03-02T09:28:32.655Z,246.7
2024-03-02T09:29:32.656Z,357.1
2024-03-02T09:30:32.659Z,181.4
2024-03-02T09:31:32.640Z,332.5
2024-03-02T09:32:32.704Z,358.8
2024-03-02T09:33:32.802Z,355.4
2024-03-02T09:34:32.658Z,199.2
2024-03-02T09:35:32.658Z,199.5
2024-03-02T09:36:32.664Z,122
2024-03-02T09:37:32.643Z,80.3
2024-03-02T09:38:32.637Z,112.5
2024-03-02T09:39:32.681Z,83.7
2024-03-02T09:40:32.657Z,122
2024-03-02T09:41:32.659Z,119
2024-03-02T09:42:32.632Z,122.2
2024-03-02T09:43:32.645Z,116.5
2024-03-02T09:44:32.634Z,53.6
2024-03-02T09:45:32.675Z,43.5
2024-03-02T09:46:32.640Z,50.4
2024-03-02T09:47:32.653Z,119.4
2024-03-02T09:48:32.682Z,72.7
2024-03-02T09:49:32.652Z,81.1
2024-03-02T09:50:32.657Z,84
2024-03-02T09:51:32.693Z,94.8
2024-03-02T09:52:32.636Z,92
2024-03-02T09:53:32.642Z,103.2
2024-03-02T09:54:32.705Z,112.7
2024-03-02T09:55:32.614Z,123.2
2024-03-02T09:56:32.661Z,101.3
2024-03-02T09:57:32.683Z,109.2
2024-03-02T09:58:32.661Z,68.9
2024-03-02T09:59:32.641Z,103.4
2024-03-02T10:00:32.633Z,99.3
2024-03-02T10:01:32.672Z,125.1
2024-03-02T10:02:32.665Z,99
2024-03-02T10:03:32.655Z,82.8
2024-03-02T10:04:32.681Z,74.6
2024-03-02T10:05:32.655Z,106.1
2024-03-02T10:06:32.736Z,92.5
2024-03-02T10:07:32.635Z,102.1
2024-03-02T10:08:32.673Z,97.1
2024-03-02T10:09:32.675Z,74
2024-03-02T10:10:32.672Z,85.4
2024-03-02T10:11:32.611Z,86.2
2024-03-02T10:12:32.667Z,107.2
2024-03-02T10:13:32.658Z,112.5
2024-03-02T10:14:32.638Z,94.2
2024-03-02T10:15:32.653Z,114.2
2024-03-02T10:16:32.652Z,124.2
2024-03-02T10:17:32.822Z,123.2
2024-03-02T10:18:32.650Z,99.6
2024-03-02T10:19:32.634Z,117
2024-03-02T10:20:32.635Z,118.3
2024-03-02T10:21:32.640Z,133.5
2024-03-02T10:22:32.672Z,112.7
2024-03-02T10:23:32.645Z,97.6
2024-03-02T10:24:32.649Z,119.6
2024-03-02T10:25:40.583Z,106.4
2024-03-02T10:26:32.636Z,79.2
2024-03-02T10:27:32.625Z,118.5
2024-03-02T10:28:32.653Z,131.1
2024-03-02T10:29:32.614Z,154.1
2024-03-02T10:30:32.672Z,109.5
2024-03-02T10:31:32.637Z,120.1
2024-03-02T10:32:32.663Z,129
2024-03-02T10:33:32.656Z,126.8
2024-03-02T10:34:32.665Z,138
2024-03-02T10:35:32.603Z,128.4
2024-03-02T10:36:32.695Z,148.6
2024-03-02T10:37:32.661Z,143.1
2024-03-02T10:38:32.654Z,124.6
2024-03-02T10:39:32.720Z,124
2024-03-02T10:40:32.661Z,142.5
2024-03-02T10:41:32.660Z,126.8
2024-03-02T10:42:32.677Z,118.3
2024-03-02T10:43:32.639Z,119.8
2024-03-02T10:44:32.638Z,85.4
2024-03-02T10:45:32.686Z,107.7
2024-03-02T10:46:32.637Z,84
2024-03-02T10:47:32.684Z,167.3
2024-03-02T10:48:32.650Z,113.2
2024-03-02T10:49:32.655Z,87.9
2024-03-02T10:50:32.653Z,92.2
2024-03-02T10:51:32.652Z,83.7
2024-03-02T10:52:32.668Z,84.2
2024-03-02T10:53:32.644Z,92.2
2024-03-02T10:54:32.683Z,82.5
2024-03-02T10:55:33.015Z,119.6
2024-03-02T10:56:32.649Z,92
2024-03-02T10:57:32.707Z,87.1
2024-03-02T10:58:32.801Z,103.7
2024-03-02T10:59:32.638Z,91.7
2024-03-02T11:00:32.641Z,126.3
2024-03-02T11:01:32.722Z,102.6
2024-03-02T11:02:32.651Z,124
2024-03-02T11:03:32.671Z,123.2
2024-03-02T11:04:32.661Z,131.5
2024-03-02T11:05:32.652Z,117.2
2024-03-02T11:06:32.624Z,130.6
2024-03-02T11:07:32.655Z,120.7
2024-03-02T11:08:32.659Z,109.5
2024-03-02T11:09:32.668Z,128.3
2024-03-02T11:10:32.673Z,126.3
2024-03-02T11:11:32.699Z,118.1
2024-03-02T11:12:32.689Z,113.9
2024-03-02T11:13:32.651Z,84.5
2024-03-02T11:14:32.641Z,117.9
2024-03-02T11:15:32.629Z,124.4
2024-03-02T11:16:32.608Z,121.1
2024-03-02T11:17:32.680Z,114.7
2024-03-02T11:18:32.709Z,121.5
2024-03-02T11:19:32.755Z,134.5
2024-03-02T11:20:32.650Z,90.8
2024-03-02T11:21:32.719Z,136.1
2024-03-02T11:22:32.659Z,124.4
2024-03-02T11:23:32.670Z,123.4
2024-03-02T11:24:36.513Z,105.3
2024-03-02T11:25:32.630Z,146.5
2024-03-02T11:26:32.642Z,152.9
2024-03-02T11:27:32.697Z,146.1
2024-03-02T11:28:32.585Z,146.9
2024-03-02T11:29:32.668Z,131.6
2024-03-02T11:30:32.681Z,130
2024-03-02T11:31:32.638Z,140.8
2024-03-02T11:32:32.651Z,120.5
2024-03-02T11:33:32.769Z,153.2
2024-03-02T11:34:32.643Z,132.7
2024-03-02T11:35:32.633Z,126.5
2024-03-02T11:36:32.685Z,133.2
2024-03-02T11:37:32.713Z,118.3
2024-03-02T11:38:32.710Z,117.2
2024-03-02T11:39:32.673Z,138.1
2024-03-02T11:40:32.666Z,128.4
2024-03-02T11:41:32.622Z,119.8
2024-03-02T11:42:32.658Z,107.2
2024-03-02T11:43:32.639Z,118.3
2024-03-02T11:44:32.643Z,125.7
2024-03-02T11:45:32.627Z,147.9
2024-03-02T11:46:32.650Z,127.5
2024-03-02T11:47:34.617Z,124.2
2024-03-02T11:48:32.690Z,101.8
2024-03-02T11:49:32.610Z,86.8
2024-03-02T11:50:32.623Z,112.2
2024-03-02T11:51:32.706Z,143.6
2024-03-02T11:52:32.641Z,129.3
2024-03-02T11:53:35.562Z,112.5
2024-03-02T11:54:32.645Z,116.1
2024-03-02T11:55:32.625Z,120.9
2024-03-02T11:56:32.626Z,119.2
2024-03-02T11:57:32.653Z,116.5
2024-03-02T11:58:32.655Z,127.7
2024-03-02T11:59:32.633Z,133
2024-03-02T12:00:32.716Z,130.3
2024-03-02T12:01:32.788Z,128.1
2024-03-02T12:02:32.655Z,137.5
2024-03-02T12:03:32.747Z,87.1
2024-03-02T12:04:32.672Z,99.9
2024-03-02T12:05:32.653Z,97.4
2024-03-02T12:06:32.698Z,129.6
2024-03-02T12:07:32.657Z,112.2
2024-03-02T12:08:32.659Z,129.1
2024-03-02T12:09:32.666Z,133.2
2024-03-02T12:10:32.690Z,130.3
2024-03-02T12:11:32.683Z,103.4
2024-03-02T12:12:32.681Z,108.2
2024-03-02T12:13:33.023Z,117
2024-03-02T12:14:32.638Z,118.1
2024-03-02T12:15:32.687Z,108
2024-03-02T12:16:32.656Z,93.7
2024-03-02T12:17:32.680Z,134.4
2024-03-02T12:18:32.684Z,122.8
2024-03-02T12:19:32.603Z,61.8
2024-03-02T12:20:32.640Z,127.9
2024-03-02T12:21:32.696Z,99.9
2024-03-02T12:22:32.645Z,109.2
2024-03-02T12:23:32.659Z,136.7
2024-03-02T12:24:32.661Z,32.8
2024-03-02T12:25:32.794Z,119
2024-03-02T12:26:32.640Z,123.2
2024-03-02T12:27:32.686Z,82
2024-03-02T12:28:33.786Z,130.1
2024-03-02T12:29:32.601Z,120.1
2024-03-02T12:30:32.697Z,130.8
2024-03-02T12:31:32.625Z,136.9
2024-03-02T12:32:32.650Z,132.1
2024-03-02T12:33:32.769Z,136.4
2024-03-02T12:34:32.724Z,117.9
2024-03-02T12:35:32.685Z,153.2
2024-03-02T12:36:32.715Z,131
2024-03-02T12:37:32.649Z,145.3
2024-03-02T12:38:32.630Z,152
2024-03-02T12:39:32.668Z,122.8
2024-03-02T12:40:32.646Z,147.7
2024-03-02T12:41:33.109Z,128.1
2024-03-02T12:42:32.688Z,150.3
2024-03-02T12:43:32.638Z,170.9
2024-03-02T12:44:32.649Z,153.4
2024-03-02T12:45:32.639Z,95.4
2024-03-02T12:46:32.643Z,127
2024-03-02T12:47:32.718Z,146.5
2024-03-02T12:48:32.676Z,153.2
2024-03-02T12:49:32.656Z,147.1
2024-03-02T12:50:32.654Z,130.3
2024-03-02T12:51:32.668Z,117.9
2024-03-02T12:52:32.649Z,139.6
2024-03-02T12:53:32.648Z,143.6
2024-03-02T12:54:32.680Z,137
2024-03-02T12:55:32.672Z,126.8
2024-03-02T12:56:32.600Z,134.7
2024-03-02T12:57:32.672Z,125.7
2024-03-02T12:58:32.665Z,119.8
2024-03-02T12:59:32.713Z,155.2
2024-03-02T13:00:32.641Z,138
2024-03-02T13:01:32.712Z,144.6
2024-03-02T13:02:32.633Z,152.9
2024-03-02T13:03:32.634Z,177.7
2024-03-02T13:04:32.630Z,155.7
2024-03-02T13:05:32.644Z,119
2024-03-02T13:06:32.648Z,121.1